Time;durP1;ratioP1;P1;durP2;ratioP2;P2;SDS_P1;SDS_P2;PMS_P1;PMS_P2;Temp;Humidity;BMP_temperature;BMP_pressure;BME280_temperature;BME280_humidity;BME280_pressure;Samples;Min_cycle;Max_cycle;Signal;HPM_P1;HPM_P2
2022/08/29 00:01:56;;;;;;;10.38;5.05;;;;;;;;;;5033815;28;20068;-42
2022/08/29 00:04:22;;;;;;;8.35;5.05;;;;;;;;;;5034461;28;20318;-43
2022/08/29 00:06:47;;;;;;;6.43;5.05;;;;;;;;;;5015819;28;20029;-44
2022/08/29 00:09:12;;;;;;;6.70;5.00;;;;;;;;;;5034108;28;20081;-42
2022/08/29 00:11:37;;;;;;;8.63;5.40;;;;;;;;;;5034015;28;20761;-45
2022/08/29 00:14:03;;;;;;;7.82;5.60;;;;;;;;;;5016263;28;20300;-43
2022/08/29 00:16:28;;;;;;;7.82;5.53;;;;;;;;;;5016031;28;20052;-44
2022/08/29 00:18:53;;;;;;;10.38;5.70;;;;;;;;;;5015729;28;20435;-43
2022/08/29 00:21:18;;;;;;;7.17;5.83;;;;;;;;;;5033894;28;20435;-45
2022/08/29 00:23:44;;;;;;;6.70;6.00;;;;;;;;;;5015752;28;20251;-43
2022/08/29 00:26:09;;;;;;;9.43;5.88;;;;;;;;;;5015599;28;20021;-43
2022/08/29 00:28:34;;;;;;;12.00;6.47;;;;;;;;;;5033247;28;20449;-43
2022/08/29 00:31:00;;;;;;;7.35;5.57;;;;;;;;;;5014542;28;20275;-44
2022/08/29 00:33:26;;;;;;;13.52;6.40;;;;;;;;;;5016044;28;20018;-44
2022/08/29 00:35:51;;;;;;;6.65;5.95;;;;;;;;;;5033097;28;20029;-43
2022/08/29 00:38:16;;;;;;;10.15;6.75;;;;;;;;;;5015585;28;20021;-44
2022/08/29 00:40:44;;;;;;;15.65;7.03;;;;;;;;;;5033021;28;20109;-44
2022/08/29 00:43:10;;;;;;;14.45;6.63;;;;;;;;;;5032939;28;20028;-43
2022/08/29 00:45:37;;;;;;;7.10;6.40;;;;;;;;;;5015358;28;20369;-44
2022/08/29 00:48:13;;;;;;;11.18;7.28;;;;;;;;;;5033189;28;20017;-43
2022/08/29 00:50:43;;;;;;;12.93;6.85;;;;;;;;;;5015860;28;20369;-46
2022/08/29 00:53:13;;;;;;;8.63;6.82;;;;;;;;;;5052813;28;20024;-43
2022/08/29 00:55:39;;;;;;;10.73;7.38;;;;;;;;;;5052927;28;20017;-44
2022/08/29 00:58:13;;;;;;;8.70;6.82;;;;;;;;;;5034957;28;20021;-44
2022/08/29 01:00:39;;;;;;;11.30;7.07;;;;;;;;;;5053149;28;20439;-44
2022/08/29 01:03:05;;;;;;;13.38;7.38;;;;;;;;;;5053191;28;20029;-44
2022/08/29 01:05:31;;;;;;;11.43;7.65;;;;;;;;;;5053339;28;20067;-43
2022/08/29 01:07:56;;;;;;;10.70;7.70;;;;;;;;;;5052441;28;20057;-44
2022/08/29 01:13:07;;;;;;;9.75;7.78;;;;;;;;;;5053427;28;20040;-42
2022/08/29 01:15:33;;;;;;;10.68;7.13;;;;;;;;;;5052847;28;20025;-44
2022/08/29 01:17:58;;;;;;;10.98;7.38;;;;;;;;;;5052544;28;20017;-45
2022/08/29 01:20:24;;;;;;;11.57;8.35;;;;;;;;;;5034791;28;20377;-43
2022/08/29 01:23:06;;;;;;;11.43;8.00;;;;;;;;;;5034682;28;20045;-43
2022/08/29 01:25:34;;;;;;;11.38;7.50;;;;;;;;;;5034734;28;20261;-43
2022/08/29 01:28:02;;;;;;;11.35;8.23;;;;;;;;;;5052214;28;20491;-41
2022/08/29 01:30:28;;;;;;;11.17;7.83;;;;;;;;;;5034654;28;20537;-44
2022/08/29 01:32:56;;;;;;;9.80;7.43;;;;;;;;;;5034300;28;20109;-44
2022/08/29 01:35:22;;;;;;;15.40;8.13;;;;;;;;;;5052659;28;20451;-43
2022/08/29 01:37:47;;;;;;;9.80;7.68;;;;;;;;;;5052268;28;20092;-45
2022/08/29 01:40:13;;;;;;;10.25;7.68;;;;;;;;;;5033558;28;20408;-43
2022/08/29 01:42:38;;;;;;;9.85;7.35;;;;;;;;;;5052280;28;20475;-44
2022/08/29 01:45:05;;;;;;;12.07;7.85;;;;;;;;;;5051811;28;20025;-45
2022/08/29 01:47:33;;;;;;;9.45;7.13;;;;;;;;;;5034430;28;20017;-43
2022/08/29 01:49:58;;;;;;;11.43;7.38;;;;;;;;;;5051630;28;20376;-43
2022/08/29 01:52:23;;;;;;;11.23;7.63;;;;;;;;;;5035866;28;20040;-43
2022/08/29 01:54:49;;;;;;;13.47;7.37;;;;;;;;;;5031717;28;20041;-47
2022/08/29 01:57:15;;;;;;;14.25;8.50;;;;;;;;;;5031733;28;20239;-43
2022/08/29 01:59:40;;;;;;;9.93;8.20;;;;;;;;;;5032042;28;20025;-43
2022/08/29 02:02:06;;;;;;;15.80;7.80;;;;;;;;;;5031455;28;20018;-45
2022/08/29 02:04:31;;;;;;;9.07;7.77;;;;;;;;;;5013592;28;20021;-44
2022/08/29 02:06:57;;;;;;;11.20;7.78;;;;;;;;;;5031691;28;20249;-43
2022/08/29 02:09:23;;;;;;;12.38;7.95;;;;;;;;;;5033928;28;20417;-43
2022/08/29 02:11:49;;;;;;;13.63;8.02;;;;;;;;;;5013300;28;20037;-44
2022/08/29 02:14:14;;;;;;;11.88;8.27;;;;;;;;;;5013998;28;20120;-43
2022/08/29 02:16:40;;;;;;;11.52;7.75;;;;;;;;;;5031199;28;20079;-42
2022/08/29 02:19:05;;;;;;;15.40;7.45;;;;;;;;;;5013558;28;20020;-43
2022/08/29 02:21:30;;;;;;;10.03;7.93;;;;;;;;;;5031257;28;20022;-45
2022/08/29 02:23:59;;;;;;;13.27;8.30;;;;;;;;;;5031403;28;20243;-43
2022/08/29 02:26:24;;;;;;;10.73;7.90;;;;;;;;;;5031498;28;20495;-43
2022/08/29 02:28:50;;;;;;;10.23;7.55;;;;;;;;;;5031393;28;20021;-46
2022/08/29 02:31:16;;;;;;;11.77;8.00;;;;;;;;;;5031030;28;20037;-43
2022/08/29 02:33:41;;;;;;;16.10;8.27;;;;;;;;;;5031468;28;20385;-41
2022/08/29 02:36:07;;;;;;;11.40;8.00;;;;;;;;;;5031241;28;20053;-43
2022/08/29 02:38:33;;;;;;;10.40;8.35;;;;;;;;;;5013493;28;20455;-44
2022/08/29 02:40:58;;;;;;;13.77;8.85;;;;;;;;;;5013380;28;20014;-45
2022/08/29 02:43:24;;;;;;;10.77;8.25;;;;;;;;;;5031408;28;20465;-43
2022/08/29 02:45:50;;;;;;;14.25;8.88;;;;;;;;;;5012850;28;20020;-44
2022/08/29 02:48:16;;;;;;;12.02;8.82;;;;;;;;;;5013430;28;20389;-44
2022/08/29 02:50:42;;;;;;;12.23;8.77;;;;;;;;;;5014498;28;20029;-44
2022/08/29 02:53:08;;;;;;;13.75;9.23;;;;;;;;;;5052896;28;20032;-43
2022/08/29 02:55:33;;;;;;;11.77;8.55;;;;;;;;;;5037337;28;20021;-43
2022/08/29 02:57:59;;;;;;;11.67;8.77;;;;;;;;;;5055442;28;20025;-43
2022/08/29 03:00:26;;;;;;;13.53;8.77;;;;;;;;;;5055415;28;20717;-44
2022/08/29 03:02:51;;;;;;;14.05;8.68;;;;;;;;;;5037678;28;20333;-44
2022/08/29 03:05:18;;;;;;;12.48;8.38;;;;;;;;;;5054927;28;20111;-44
2022/08/29 03:07:44;;;;;;;11.43;8.07;;;;;;;;;;5056492;28;20057;-44
2022/08/29 03:10:09;;;;;;;12.52;8.98;;;;;;;;;;5037312;28;20036;-44
2022/08/29 03:12:35;;;;;;;11.77;8.27;;;;;;;;;;5054860;28;20041;-42
2022/08/29 03:15:01;;;;;;;12.30;8.70;;;;;;;;;;5054622;28;20067;-44
2022/08/29 03:17:27;;;;;;;10.73;8.25;;;;;;;;;;5055049;28;20404;-42
2022/08/29 03:19:52;;;;;;;14.52;8.70;;;;;;;;;;5054152;28;20372;-44
2022/08/29 03:22:18;;;;;;;12.27;8.77;;;;;;;;;;5055101;28;20035;-43
2022/08/29 03:24:43;;;;;;;14.52;9.65;;;;;;;;;;5055074;28;20021;-44
2022/08/29 03:27:08;;;;;;;13.05;8.95;;;;;;;;;;5054508;28;20121;-43
2022/08/29 03:29:34;;;;;;;11.25;8.43;;;;;;;;;;5037064;28;20021;-42
2022/08/29 03:31:59;;;;;;;14.10;8.88;;;;;;;;;;5054256;28;20483;-41
2022/08/29 03:34:26;;;;;;;14.40;9.18;;;;;;;;;;5036887;28;20032;-44
2022/08/29 03:36:51;;;;;;;16.25;9.40;;;;;;;;;;5054123;28;20021;-42
2022/08/29 03:39:16;;;;;;;20.27;9.07;;;;;;;;;;5036664;28;20120;-42
2022/08/29 03:41:41;;;;;;;18.45;8.90;;;;;;;;;;5054654;28;20024;-45
2022/08/29 03:44:07;;;;;;;15.80;9.57;;;;;;;;;;5054617;28;20029;-42
2022/08/29 03:46:34;;;;;;;13.68;9.60;;;;;;;;;;5036330;28;20617;-41
2022/08/29 03:48:59;;;;;;;14.68;9.93;;;;;;;;;;5036235;28;20113;-42
2022/08/29 03:51:25;;;;;;;14.55;10.00;;;;;;;;;;5028412;28;20116;-46
2022/08/29 03:53:50;;;;;;;11.23;8.80;;;;;;;;;;5034391;28;20014;-42
2022/08/29 03:56:15;;;;;;;13.65;9.18;;;;;;;;;;5034107;28;20030;-43
2022/08/29 03:58:41;;;;;;;20.02;10.98;;;;;;;;;;5034362;28;20028;-43
2022/08/29 04:01:06;;;;;;;12.32;9.50;;;;;;;;;;5034199;28;20047;-43
2022/08/29 04:03:32;;;;;;;13.25;9.77;;;;;;;;;;5033528;28;20032;-43
2022/08/29 04:05:57;;;;;;;17.73;10.25;;;;;;;;;;5015838;28;20021;-42
2022/08/29 04:08:22;;;;;;;18.08;10.15;;;;;;;;;;5036161;28;20076;-43
2022/08/29 04:10:48;;;;;;;17.02;10.60;;;;;;;;;;5033585;28;20385;-43
2022/08/29 04:13:14;;;;;;;16.83;10.47;;;;;;;;;;5034221;28;20017;-43
2022/08/29 04:15:40;;;;;;;17.98;10.40;;;;;;;;;;5033612;28;20741;-43
2022/08/29 04:18:06;;;;;;;17.95;10.77;;;;;;;;;;5033506;28;20017;-40
2022/08/29 04:20:33;;;;;;;14.32;10.57;;;;;;;;;;5033604;28;20064;-42
2022/08/29 04:22:58;;;;;;;17.58;9.98;;;;;;;;;;5033238;28;20025;-44
2022/08/29 04:25:25;;;;;;;18.85;10.23;;;;;;;;;;5034029;28;20055;-41
2022/08/29 04:27:50;;;;;;;18.52;9.95;;;;;;;;;;5015750;28;20013;-42
2022/08/29 04:30:18;;;;;;;15.65;9.85;;;;;;;;;;5016031;28;20025;-44
2022/08/29 04:32:43;;;;;;;13.98;9.55;;;;;;;;;;5033467;28;20037;-41
2022/08/29 04:35:11;;;;;;;13.30;9.07;;;;;;;;;;5015086;28;20449;-43
2022/08/29 04:37:36;;;;;;;14.93;9.50;;;;;;;;;;5015643;28;20018;-44
2022/08/29 04:40:02;;;;;;;13.13;9.70;;;;;;;;;;5015838;28;20028;-41
2022/08/29 04:42:27;;;;;;;13.63;9.13;;;;;;;;;;5033578;28;20024;-45
2022/08/29 04:44:52;;;;;;;12.10;9.27;;;;;;;;;;5033154;28;20041;-43
2022/08/29 04:47:21;;;;;;;14.07;9.03;;;;;;;;;;5033271;28;20787;-44
2022/08/29 04:49:48;;;;;;;13.80;8.75;;;;;;;;;;5015542;28;20247;-43
2022/08/29 04:52:13;;;;;;;12.73;8.68;;;;;;;;;;5047137;28;20041;-42
2022/08/29 04:54:39;;;;;;;11.27;8.75;;;;;;;;;;5053350;28;20358;-44
2022/08/29 04:57:04;;;;;;;10.93;7.50;;;;;;;;;;5052790;28;20139;-43
2022/08/29 04:59:30;;;;;;;12.20;8.10;;;;;;;;;;5035100;28;20021;-41
2022/08/29 05:01:55;;;;;;;11.57;7.47;;;;;;;;;;5035083;28;20112;-42
2022/08/29 05:04:20;;;;;;;10.02;7.63;;;;;;;;;;5034903;28;20036;-45
2022/08/29 05:06:46;;;;;;;13.17;7.80;;;;;;;;;;5052759;28;20032;-43
2022/08/29 05:09:11;;;;;;;12.07;7.22;;;;;;;;;;5055586;28;20292;-42
2022/08/29 05:11:36;;;;;;;9.43;6.88;;;;;;;;;;5071406;28;20616;-43
2022/08/29 05:14:01;;;;;;;12.45;6.55;;;;;;;;;;5071308;28;20059;-44
2022/08/29 05:16:28;;;;;;;11.00;7.25;;;;;;;;;;5072172;28;20017;-43
2022/08/29 05:18:54;;;;;;;6.30;5.57;;;;;;;;;;5072631;28;20383;-44
2022/08/29 05:21:25;;;;;;;10.02;6.30;;;;;;;;;;5072330;28;20017;-44
2022/08/29 05:23:51;;;;;;;10.98;6.22;;;;;;;;;;5070745;28;20115;-43
2022/08/29 05:26:17;;;;;;;7.13;5.30;;;;;;;;;;5072308;28;20111;-45
2022/08/29 05:28:44;;;;;;;9.98;5.53;;;;;;;;;;5071676;28;20028;-44
2022/08/29 05:31:10;;;;;;;8.38;5.13;;;;;;;;;;5072123;28;20064;-44
2022/08/29 05:33:36;;;;;;;9.70;5.80;;;;;;;;;;5071247;28;20365;-43
2022/08/29 05:36:01;;;;;;;9.85;6.07;;;;;;;;;;5070789;28;20031;-43
2022/08/29 05:38:26;;;;;;;8.02;4.82;;;;;;;;;;5072593;28;20077;-43
2022/08/29 05:40:52;;;;;;;8.40;4.77;;;;;;;;;;5071041;28;20463;-43
2022/08/29 05:43:17;;;;;;;15.20;5.73;;;;;;;;;;5062083;28;20257;-44
2022/08/29 05:45:42;;;;;;;6.40;4.40;;;;;;;;;;5065421;28;20625;-41
2022/08/29 05:48:08;;;;;;;12.82;5.10;;;;;;;;;;5062224;28;20257;-42
2022/08/29 05:50:41;;;;;;;8.35;5.60;;;;;;;;;;5060260;28;20052;-43
2022/08/29 05:53:10;;;;;;;7.72;5.15;;;;;;;;;;5065482;28;20029;-42
2022/08/29 05:55:42;;;;;;;9.05;4.90;;;;;;;;;;5064684;28;20067;-42
2022/08/29 05:58:07;;;;;;;8.38;5.00;;;;;;;;;;5050568;28;20040;-43
2022/08/29 06:00:32;;;;;;;11.25;4.93;;;;;;;;;;5061488;28;20017;-44
2022/08/29 06:02:58;;;;;;;7.30;5.57;;;;;;;;;;5067379;28;20105;-43
2022/08/29 06:05:23;;;;;;;8.17;4.87;;;;;;;;;;5064970;28;20254;-40
2022/08/29 06:07:48;;;;;;;6.80;4.87;;;;;;;;;;5054267;28;20262;-46
2022/08/29 06:10:14;;;;;;;6.18;4.15;;;;;;;;;;5030835;28;20262;-45
2022/08/29 06:12:39;;;;;;;7.37;5.03;;;;;;;;;;5022584;28;20033;-45
2022/08/29 06:15:05;;;;;;;6.88;4.53;;;;;;;;;;5013135;28;20278;-46
2022/08/29 06:17:30;;;;;;;4.47;4.07;;;;;;;;;;5040353;28;20016;-42
2022/08/29 06:19:56;;;;;;;9.68;4.90;;;;;;;;;;5012762;28;20039;-44
2022/08/29 06:22:21;;;;;;;7.95;4.72;;;;;;;;;;5027100;28;20017;-43
2022/08/29 06:24:47;;;;;;;8.20;4.50;;;;;;;;;;5050393;28;20558;-41
2022/08/29 06:27:12;;;;;;;8.57;4.82;;;;;;;;;;5050767;28;20238;-43
2022/08/29 06:29:38;;;;;;;8.25;4.63;;;;;;;;;;5050748;28;20028;-43
2022/08/29 06:32:03;;;;;;;7.25;4.50;;;;;;;;;;5050574;28;20029;-41
2022/08/29 06:34:29;;;;;;;6.90;3.92;;;;;;;;;;5046801;28;20358;-44
2022/08/29 06:36:54;;;;;;;6.38;4.22;;;;;;;;;;5032688;28;20116;-41
2022/08/29 06:39:19;;;;;;;10.80;4.35;;;;;;;;;;5032868;28;20032;-42
2022/08/29 06:41:45;;;;;;;5.33;3.97;;;;;;;;;;5050406;28;20032;-40
2022/08/29 06:44:10;;;;;;;4.85;3.70;;;;;;;;;;5050356;28;20628;-41
2022/08/29 06:46:37;;;;;;;6.73;4.00;;;;;;;;;;5032667;28;20653;-43
2022/08/29 06:49:04;;;;;;;9.25;4.28;;;;;;;;;;5032487;28;20246;-43
2022/08/29 06:51:31;;;;;;;6.63;4.00;;;;;;;;;;5042655;28;20440;-41
2022/08/29 06:54:00;;;;;;;4.20;3.38;;;;;;;;;;5037410;28;20059;-37
2022/08/29 06:56:25;;;;;;;;;;;;;;;;;;5050859;28;20032;-40
2022/08/29 06:58:51;;;;;;;10.53;3.43;;;;;;;;;;5031805;28;19905;-41
2022/08/29 07:01:17;;;;;;;6.50;4.30;;;;;;;;;;5050690;28;20025;-41
2022/08/29 07:03:42;;;;;;;4.82;3.72;;;;;;;;;;5049339;28;20322;-42
2022/08/29 07:06:08;;;;;;;6.10;3.83;;;;;;;;;;5032916;28;20462;-42
2022/08/29 07:08:34;;;;;;;7.03;4.15;;;;;;;;;;5042399;28;20556;-41
2022/08/29 07:11:00;;;;;;;5.95;4.13;;;;;;;;;;5070031;28;20430;-45
2022/08/29 07:13:25;;;;;;;3.30;3.00;;;;;;;;;;5070068;28;20021;-45
2022/08/29 07:15:50;;;;;;;4.35;3.30;;;;;;;;;;5068793;28;20060;-46
2022/08/29 07:18:16;;;;;;;5.07;3.80;;;;;;;;;;5070215;28;20035;-41
2022/08/29 07:20:41;;;;;;;5.47;4.15;;;;;;;;;;5070505;28;20017;-42
2022/08/29 07:23:07;;;;;;;7.10;4.43;;;;;;;;;;5070201;28;20025;-44
2022/08/29 07:25:32;;;;;;;5.10;4.00;;;;;;;;;;5069435;28;20099;-44
2022/08/29 07:27:57;;;;;;;7.25;4.25;;;;;;;;;;5070243;28;20112;-43
2022/08/29 07:30:23;;;;;;;5.10;4.28;;;;;;;;;;5069129;28;20021;-43
2022/08/29 07:32:48;;;;;;;5.57;4.45;;;;;;;;;;5070136;28;20446;-44
2022/08/29 07:35:14;;;;;;;5.97;4.30;;;;;;;;;;5068600;28;20074;-42
2022/08/29 07:37:39;;;;;;;6.80;3.95;;;;;;;;;;5068074;28;20484;-44
2022/08/29 07:40:09;;;;;;;5.68;4.05;;;;;;;;;;5073180;28;20062;-45
2022/08/29 07:42:35;;;;;;;7.82;4.10;;;;;;;;;;5073802;28;20375;-44
2022/08/29 07:45:01;;;;;;;5.45;3.90;;;;;;;;;;5073737;28;20021;-46
2022/08/29 07:47:27;;;;;;;9.93;3.95;;;;;;;;;;5065503;28;20460;-43
2022/08/29 07:49:53;;;;;;;5.47;3.75;;;;;;;;;;5053531;28;20031;-43
2022/08/29 07:52:18;;;;;;;6.47;3.65;;;;;;;;;;5053709;28;20112;-45
2022/08/29 07:54:43;;;;;;;8.30;3.87;;;;;;;;;;5053611;28;20052;-43
2022/08/29 07:57:09;;;;;;;6.70;3.72;;;;;;;;;;5051023;28;20076;-44
2022/08/29 07:59:34;;;;;;;3.70;3.33;;;;;;;;;;5059017;28;20024;-41
2022/08/29 08:01:59;;;;;;;6.82;3.53;;;;;;;;;;5065494;28;20025;-45
2022/08/29 08:04:25;;;;;;;3.20;2.80;;;;;;;;;;5070922;28;20028;-42
2022/08/29 08:06:50;;;;;;;4.17;3.13;;;;;;;;;;5067771;28;20025;-45
2022/08/29 08:09:15;;;;;;;7.57;3.65;;;;;;;;;;5041064;28;20313;-42
2022/08/29 08:11:41;;;;;;;5.50;3.50;;;;;;;;;;5029780;28;20063;-41
2022/08/29 08:14:06;;;;;;;10.02;3.33;;;;;;;;;;5032019;28;20338;-42
2022/08/29 08:16:32;;;;;;;5.85;3.10;;;;;;;;;;5034517;28;20044;-42
2022/08/29 08:18:57;;;;;;;3.70;3.30;;;;;;;;;;5042205;28;20056;-46
2022/08/29 08:21:23;;;;;;;3.60;2.80;;;;;;;;;;5042747;28;20017;-43
2022/08/29 08:23:48;;;;;;;7.25;2.95;;;;;;;;;;5047699;28;20298;-44
2022/08/29 08:26:14;;;;;;;3.90;2.87;;;;;;;;;;5049381;28;20032;-42
2022/08/29 08:28:40;;;;;;;9.77;3.50;;;;;;;;;;5043099;28;20013;-45
2022/08/29 08:31:06;;;;;;;9.65;3.13;;;;;;;;;;5046117;28;20052;-42
2022/08/29 08:33:32;;;;;;;3.10;2.80;;;;;;;;;;5029501;28;20040;-46
2022/08/29 08:35:58;;;;;;;5.95;2.90;;;;;;;;;;5031276;28;20048;-45
2022/08/29 08:38:23;;;;;;;6.20;3.20;;;;;;;;;;5047658;28;20424;-42
2022/08/29 08:40:59;;;;;;;3.97;2.83;;;;;;;;;;5039692;28;20022;-44
2022/08/29 08:43:27;;;;;;;9.07;2.85;;;;;;;;;;5036173;28;20029;-45
2022/08/29 08:45:54;;;;;;;2.58;2.38;;;;;;;;;;5039152;28;20555;-41
2022/08/29 08:48:23;;;;;;;3.70;2.70;;;;;;;;;;5041527;28;20026;-42
2022/08/29 08:50:52;;;;;;;8.80;2.97;;;;;;;;;;5044774;28;20027;-44
2022/08/29 08:53:22;;;;;;;2.50;2.30;;;;;;;;;;5025293;28;20031;-41
2022/08/29 08:55:49;;;;;;;6.60;2.55;;;;;;;;;;5041427;28;20021;-44
2022/08/29 08:58:22;;;;;;;6.93;2.80;;;;;;;;;;5031333;28;20028;-44
2022/08/29 09:00:51;;;;;;;4.97;2.50;;;;;;;;;;5026832;28;20086;-44
2022/08/29 09:03:35;;;;;;;3.78;2.67;;;;;;;;;;5031929;28;20089;-44
2022/08/29 09:06:07;;;;;;;2.70;2.22;;;;;;;;;;5028875;28;20047;-42
2022/08/29 09:08:41;;;;;;;4.38;2.30;;;;;;;;;;5047951;28;20111;-44
2022/08/29 09:11:08;;;;;;;2.63;2.10;;;;;;;;;;5027385;28;20124;-45
2022/08/29 09:13:47;;;;;;;3.88;2.20;;;;;;;;;;5036940;28;20045;-43
2022/08/29 09:16:20;;;;;;;2.85;2.42;;;;;;;;;;5041707;28;20044;-43
2022/08/29 09:18:46;;;;;;;4.57;2.50;;;;;;;;;;5043854;28;20037;-40
2022/08/29 09:21:16;;;;;;;3.67;2.78;;;;;;;;;;5030926;28;20025;-45
2022/08/29 09:23:46;;;;;;;5.50;3.05;;;;;;;;;;5039003;28;20032;-44
2022/08/29 09:26:14;;;;;;;2.75;2.10;;;;;;;;;;5040622;28;20029;-45
2022/08/29 09:28:39;;;;;;;9.23;2.43;;;;;;;;;;5040996;28;20024;-47
2022/08/29 09:31:22;;;;;;;4.47;2.90;;;;;;;;;;5048067;28;20032;-44
2022/08/29 09:33:48;;;;;;;7.68;2.55;;;;;;;;;;5046865;28;20606;-43
2022/08/29 09:36:14;;;;;;;5.18;2.42;;;;;;;;;;5039845;28;20021;-45
2022/08/29 09:38:39;;;;;;;3.10;2.40;;;;;;;;;;5051717;28;20472;-45
2022/08/29 09:41:07;;;;;;;4.50;2.30;;;;;;;;;;5033139;28;20014;-42
2022/08/29 09:43:38;;;;;;;5.03;2.13;;;;;;;;;;5030712;28;20020;-42
2022/08/29 09:46:06;;;;;;;4.63;2.72;;;;;;;;;;5013223;28;20075;-45
2022/08/29 09:48:32;;;;;;;4.18;2.50;;;;;;;;;;5030415;28;20052;-44
2022/08/29 09:51:13;;;;;;;5.53;2.28;;;;;;;;;;5030522;28;20068;-43
2022/08/29 09:53:38;;;;;;;8.88;2.60;;;;;;;;;;5013695;28;20052;-42
2022/08/29 09:56:08;;;;;;;3.33;2.45;;;;;;;;;;5031102;28;20450;-40
2022/08/29 09:58:38;;;;;;;11.68;2.47;;;;;;;;;;5040035;28;20049;-43
2022/08/29 10:01:10;;;;;;;2.88;1.83;;;;;;;;;;5050526;28;20484;-44
2022/08/29 10:03:50;;;;;;;3.10;2.40;;;;;;;;;;5049599;28;20025;-44
2022/08/29 10:06:19;;;;;;;3.03;2.10;;;;;;;;;;5025990;28;20048;-41
2022/08/29 10:08:55;;;;;;;5.28;2.13;;;;;;;;;;5037001;28;20051;-44
2022/08/29 10:11:23;;;;;;;6.07;1.83;;;;;;;;;;5070040;28;20174;-45
2022/08/29 10:13:51;;;;;;;3.60;2.30;;;;;;;;;;5070485;28;20008;-45
2022/08/29 10:16:22;;;;;;;2.67;2.20;;;;;;;;;;5071198;28;20032;-43
2022/08/29 10:18:50;;;;;;;3.50;1.95;;;;;;;;;;5064756;28;20021;-46
2022/08/29 10:21:25;;;;;;;2.85;2.33;;;;;;;;;;5056446;28;20032;-43
2022/08/29 10:23:50;;;;;;;2.63;1.95;;;;;;;;;;5048498;28;20111;-44
2022/08/29 10:26:24;;;;;;;2.40;2.20;;;;;;;;;;5054456;28;20144;-42
2022/08/29 10:28:53;;;;;;;2.78;2.40;;;;;;;;;;5068965;28;20131;-44
2022/08/29 10:31:36;;;;;;;3.08;1.70;;;;;;;;;;5069170;28;20036;-43
2022/08/29 10:34:20;;;;;;;3.42;2.00;;;;;;;;;;5069218;28;20033;-46
2022/08/29 10:36:50;;;;;;;3.40;1.67;;;;;;;;;;5070655;28;20020;-42
2022/08/29 10:39:22;;;;;;;5.97;2.00;;;;;;;;;;5070521;28;20028;-43
2022/08/29 10:42:01;;;;;;;4.97;1.95;;;;;;;;;;5070760;28;20031;-43
2022/08/29 10:44:32;;;;;;;4.00;2.60;;;;;;;;;;5070736;28;20023;-43
2022/08/29 10:47:09;;;;;;;3.60;2.05;;;;;;;;;;5070884;28;20078;-42
2022/08/29 10:49:46;;;;;;;3.65;1.90;;;;;;;;;;5070158;28;20017;-43
2022/08/29 10:52:25;;;;;;;3.72;1.90;;;;;;;;;;5063944;28;20496;-42
2022/08/29 10:54:50;;;;;;;3.05;2.08;;;;;;;;;;5064607;28;20055;-43
2022/08/29 10:57:40;;;;;;;4.55;2.05;;;;;;;;;;5058848;28;20064;-43
2022/08/29 11:00:11;;;;;;;3.42;1.90;;;;;;;;;;5056318;28;20035;-43
2022/08/29 11:02:45;;;;;;;3.58;2.20;;;;;;;;;;5055019;28;20515;-45
2022/08/29 11:05:17;;;;;;;5.13;2.28;;;;;;;;;;5070386;28;20107;-42
2022/08/29 11:07:45;;;;;;;2.88;1.48;;;;;;;;;;5066294;28;20025;-43
2022/08/29 11:10:11;;;;;;;2.58;2.20;;;;;;;;;;5053156;28;20041;-42
2022/08/29 11:12:40;;;;;;;2.47;1.93;;;;;;;;;;5067645;28;20051;-43
2022/08/29 11:15:14;;;;;;;4.07;2.05;;;;;;;;;;5061421;28;20030;-45
2022/08/29 11:17:41;;;;;;;3.55;2.00;;;;;;;;;;5067945;28;20035;-46
2022/08/29 11:20:10;;;;;;;2.35;1.90;;;;;;;;;;5070270;28;20495;-42
2022/08/29 11:22:47;;;;;;;2.10;1.70;;;;;;;;;;5061777;28;20062;-42
2022/08/29 11:25:14;;;;;;;2.03;1.70;;;;;;;;;;5066292;28;20023;-42
2022/08/29 11:27:43;;;;;;;4.07;2.40;;;;;;;;;;5064989;28;20040;-44
2022/08/29 11:30:14;;;;;;;4.15;2.00;;;;;;;;;;5063487;28;20386;-43
2022/08/29 11:32:46;;;;;;;4.45;2.05;;;;;;;;;;5072394;28;20093;-45
2022/08/29 11:35:17;;;;;;;2.25;2.05;;;;;;;;;;5066500;28;20440;-45
2022/08/29 11:38:01;;;;;;;6.32;2.10;;;;;;;;;;5068825;28;20047;-43
2022/08/29 11:40:38;;;;;;;2.67;1.90;;;;;;;;;;5066913;28;20119;-44
2022/08/29 11:43:04;;;;;;;3.80;1.80;;;;;;;;;;5066317;28;20069;-44
2022/08/29 11:45:34;;;;;;;4.97;1.98;;;;;;;;;;5068458;28;20025;-43
2022/08/29 11:48:26;;;;;;;4.80;2.03;;;;;;;;;;5066679;28;20031;-40
2022/08/29 11:50:51;;;;;;;5.13;2.10;;;;;;;;;;5024804;28;20110;-44
2022/08/29 11:53:19;;;;;;;4.27;2.00;;;;;;;;;;5066355;28;20399;-43
2022/08/29 11:56:04;;;;;;;8.18;1.92;;;;;;;;;;5070247;28;20285;-43
2022/08/29 11:58:34;;;;;;;6.20;1.90;;;;;;;;;;5059683;28;20062;-44
2022/08/29 12:01:00;;;;;;;3.72;1.88;;;;;;;;;;5063637;28;20035;-44
2022/08/29 12:03:31;;;;;;;3.07;1.73;;;;;;;;;;5065327;28;20012;-45
2022/08/29 12:06:00;;;;;;;3.65;2.15;;;;;;;;;;5056571;28;20028;-42
2022/08/29 12:08:36;;;;;;;3.20;1.90;;;;;;;;;;5067616;28;20052;-42
2022/08/29 12:11:02;;;;;;;3.00;1.80;;;;;;;;;;5066639;28;20384;-41
2022/08/29 12:13:46;;;;;;;2.65;2.00;;;;;;;;;;5062680;28;20021;-44
2022/08/29 12:16:13;;;;;;;8.52;2.08;;;;;;;;;;5067735;28;20043;-44
2022/08/29 12:18:43;;;;;;;5.13;1.95;;;;;;;;;;5064391;28;20475;-45
2022/08/29 12:21:44;;;;;;;3.25;2.20;;;;;;;;;;5063830;28;20020;-44
2022/08/29 12:24:26;;;;;;;3.13;2.00;;;;;;;;;;4995932;28;20030;-44
2022/08/29 12:26:53;;;;;;;1.95;1.70;;;;;;;;;;5058270;28;20472;-42
2022/08/29 12:29:26;;;;;;;4.00;2.13;;;;;;;;;;5067614;28;20025;-40
2022/08/29 12:32:11;;;;;;;2.25;2.05;;;;;;;;;;5083262;28;20044;-45
2022/08/29 12:34:36;;;;;;;6.47;2.42;;;;;;;;;;5068956;28;20034;-45
2022/08/29 12:37:04;;;;;;;3.13;1.90;;;;;;;;;;5069873;28;20529;-44
2022/08/29 12:39:45;;;;;;;6.43;2.08;;;;;;;;;;5063438;28;20020;-44
2022/08/29 12:42:23;;;;;;;5.00;2.08;;;;;;;;;;5067252;28;20070;-46
2022/08/29 12:45:01;;;;;;;2.92;2.53;;;;;;;;;;5067236;28;20119;-46
2022/08/29 12:47:26;;;;;;;2.25;1.83;;;;;;;;;;5067968;28;20028;-44
2022/08/29 12:49:57;;;;;;;8.73;2.08;;;;;;;;;;5063638;28;20422;-44
2022/08/29 12:52:25;;;;;;;2.25;1.50;;;;;;;;;;5061824;28;20114;-45
2022/08/29 12:54:51;;;;;;;2.15;1.90;;;;;;;;;;5058890;28;20033;-46
2022/08/29 12:57:22;;;;;;;3.42;2.10;;;;;;;;;;5067022;28;20060;-44
2022/08/29 12:59:49;;;;;;;2.38;1.90;;;;;;;;;;5059690;28;20036;-45
2022/08/29 13:02:31;;;;;;;4.90;1.88;;;;;;;;;;5062500;28;20467;-45
2022/08/29 13:04:56;;;;;;;2.20;1.45;;;;;;;;;;5063095;28;20036;-44
2022/08/29 13:07:22;;;;;;;5.43;1.90;;;;;;;;;;5070268;28;20032;-43
2022/08/29 13:09:50;;;;;;;2.72;1.90;;;;;;;;;;5067699;28;20143;-41
2022/08/29 13:12:19;;;;;;;5.57;2.83;;;;;;;;;;5071815;28;20059;-45
2022/08/29 13:14:44;;;;;;;;;;;;;;;;;;5070301;28;20079;-45
2022/08/29 13:17:17;;;;;;;4.83;2.40;;;;;;;;;;5071071;28;19905;-43
2022/08/29 13:20:03;;;;;;;9.02;2.22;;;;;;;;;;5071762;28;20024;-42
2022/08/29 13:22:28;;;;;;;2.78;2.15;;;;;;;;;;5070193;28;20055;-46
2022/08/29 13:25:03;;;;;;;7.60;2.63;;;;;;;;;;5070996;28;20481;-42
2022/08/29 13:27:28;;;;;;;6.63;2.17;;;;;;;;;;5071526;28;20541;-46
2022/08/29 13:29:58;;;;;;;4.97;2.43;;;;;;;;;;5071348;28;20056;-43
2022/08/29 13:32:25;;;;;;;4.55;2.53;;;;;;;;;;5069795;28;20427;-43
2022/08/29 13:35:03;;;;;;;3.50;2.30;;;;;;;;;;5064329;28;20024;-45
2022/08/29 13:37:30;;;;;;;4.25;2.78;;;;;;;;;;5070283;28;20314;-44
2022/08/29 13:39:56;;;;;;;3.78;2.40;;;;;;;;;;5071372;28;20086;-44
2022/08/29 13:42:23;;;;;;;4.90;2.47;;;;;;;;;;5052736;28;20432;-40
2022/08/29 13:44:50;;;;;;;5.05;2.40;;;;;;;;;;5048970;28;20300;-43
2022/08/29 13:47:15;;;;;;;5.10;2.35;;;;;;;;;;5051210;28;20415;-45
2022/08/29 13:49:41;;;;;;;2.50;2.30;;;;;;;;;;5067143;28;20028;-45
2022/08/29 13:52:06;;;;;;;6.40;2.42;;;;;;;;;;5057378;28;20048;-43
2022/08/29 13:54:33;;;;;;;3.58;2.50;;;;;;;;;;5069180;28;20029;-44
2022/08/29 13:56:59;;;;;;;2.40;2.20;;;;;;;;;;5067332;28;20036;-45
2022/08/29 13:59:26;;;;;;;3.15;2.10;;;;;;;;;;5057813;28;20108;-45
2022/08/29 14:01:52;;;;;;;3.03;2.22;;;;;;;;;;5067760;28;20123;-43
2022/08/29 14:04:17;;;;;;;2.55;2.35;;;;;;;;;;5057022;28;20100;-45
2022/08/29 14:06:43;;;;;;;3.73;2.50;;;;;;;;;;5068869;28;20039;-43
2022/08/29 14:09:08;;;;;;;4.57;2.72;;;;;;;;;;5061733;28;20540;-43
2022/08/29 14:11:34;;;;;;;9.60;2.80;;;;;;;;;;5060515;28;20040;-44
2022/08/29 14:13:59;;;;;;;4.73;2.73;;;;;;;;;;5060732;28;20025;-45
2022/08/29 14:16:24;;;;;;;2.60;2.00;;;;;;;;;;5067876;28;20253;-46
2022/08/29 14:18:50;;;;;;;3.38;2.28;;;;;;;;;;5059506;28;20067;-44
2022/08/29 14:21:16;;;;;;;5.38;2.03;;;;;;;;;;5051156;28;20103;-42
2022/08/29 14:23:41;;;;;;;3.20;2.45;;;;;;;;;;5060946;28;20088;-44
2022/08/29 14:26:06;;;;;;;2.75;2.13;;;;;;;;;;5068564;28;21500;-42
2022/08/29 14:28:32;;;;;;;4.07;2.50;;;;;;;;;;5061346;28;20388;-43
2022/08/29 14:30:57;;;;;;;2.20;2.00;;;;;;;;;;5061424;28;20028;-44
2022/08/29 14:33:22;;;;;;;10.53;3.17;;;;;;;;;;5059106;28;20989;-45
2022/08/29 14:35:48;;;;;;;5.88;2.20;;;;;;;;;;5068298;28;20032;-43
2022/08/29 14:38:13;;;;;;;4.35;2.45;;;;;;;;;;5070124;28;20016;-43
2022/08/29 14:40:39;;;;;;;3.53;2.60;;;;;;;;;;5068524;28;20526;-44
2022/08/29 14:43:04;;;;;;;18.92;3.05;;;;;;;;;;5070818;28;20380;-43
2022/08/29 14:45:30;;;;;;;5.07;2.10;;;;;;;;;;5069423;28;20451;-43